createdAt,value
2022-12-23T00:01:23.095Z,9.99
2022-12-23T00:03:49.804Z,9.98
2022-12-23T00:06:17.593Z,9.98
2022-12-23T00:08:44.691Z,9.98
2022-12-23T00:11:14.773Z,10.00
2022-12-23T00:13:59.889Z,9.98
2022-12-23T00:16:26.406Z,9.98
2022-12-23T00:18:54.363Z,9.98
2022-12-23T00:21:21.461Z,9.99
2022-12-23T00:23:50.092Z,10.00
2022-12-23T00:26:25.449Z,9.98
2022-12-23T00:28:52.846Z,9.99
2022-12-23T00:31:19.881Z,9.98
2022-12-23T00:33:49.152Z,9.98
2022-12-23T00:36:20.265Z,9.99
2022-12-23T00:39:05.617Z,9.98
2022-12-23T00:41:50.866Z,9.99
2022-12-23T00:44:17.440Z,9.99
2022-12-23T00:46:43.898Z,10.00
2022-12-23T00:49:33.930Z,10.00
2022-12-23T00:52:00.808Z,9.99
2022-12-23T00:54:27.566Z,9.99
2022-12-23T00:56:54.135Z,9.99
2022-12-23T00:59:20.554Z,10.00
2022-12-23T01:02:06.147Z,9.99
2022-12-23T01:04:51.405Z,9.99
2022-12-23T01:07:17.925Z,10.00
2022-12-23T01:09:44.512Z,10.00
2022-12-23T01:12:11.069Z,10.00
2022-12-23T01:14:37.959Z,10.01
2022-12-23T01:17:06.673Z,10.03
2022-12-23T01:19:33.309Z,10.03
2022-12-23T01:21:59.838Z,10.00
2022-12-23T01:24:31.091Z,10.03
2022-12-23T01:26:57.677Z,10.01
2022-12-23T01:29:24.816Z,10.01
2022-12-23T01:31:51.430Z,10.01
2022-12-23T01:34:18.223Z,10.01
2022-12-23T01:36:44.777Z,10.01
2022-12-23T01:39:11.221Z,10.01
2022-12-23T01:41:56.360Z,10.00
2022-12-23T01:45:04.838Z,10.00
2022-12-23T01:48:03.896Z,10.00
2022-12-23T01:50:55.493Z,9.99
2022-12-23T01:53:28.298Z,9.98
2022-12-23T01:55:59.289Z,9.99
2022-12-23T01:58:44.552Z,10.00
2022-12-23T02:01:30.614Z,10.00
2022-12-23T02:04:02.978Z,10.01
2022-12-23T02:09:19.503Z,10.00
2022-12-23T02:12:04.188Z,9.99
2022-12-23T02:15:23.318Z,9.99
2022-12-23T02:18:04.576Z,9.98
2022-12-23T02:20:46.211Z,10.00
2022-12-23T02:23:53.092Z,9.99
2022-12-23T02:26:41.853Z,10.00
2022-12-23T02:29:26.489Z,10.00
2022-12-23T02:32:14.276Z,10.00
2022-12-23T02:34:54.308Z,10.00
2022-12-23T02:37:40.568Z,9.99
2022-12-23T02:40:22.996Z,9.98
2022-12-23T02:43:12.879Z,9.99
2022-12-23T02:46:09.754Z,9.97
2022-12-23T02:48:53.506Z,9.97
2022-12-23T02:51:22.689Z,9.98
2022-12-23T02:53:56.796Z,9.99
2022-12-23T02:56:27.156Z,9.98
2022-12-23T02:58:58.965Z,9.98
2022-12-23T03:01:29.672Z,9.98
2022-12-23T03:03:56.289Z,9.99
2022-12-23T03:06:38.559Z,9.98
2022-12-23T03:09:05.093Z,9.98
2022-12-23T03:11:49.779Z,10.00
2022-12-23T03:14:36.577Z,9.99
2022-12-23T03:17:08.741Z,9.98
2022-12-23T03:19:53.220Z,9.99
2022-12-23T03:22:35.923Z,9.99
2022-12-23T03:25:21.290Z,9.99
2022-12-23T03:28:13.130Z,9.97
2022-12-23T03:30:43.041Z,9.96
2022-12-23T03:33:21.231Z,9.97
2022-12-23T03:35:52.888Z,9.95
2022-12-23T03:38:19.831Z,9.96
2022-12-23T03:40:57.612Z,9.96
2022-12-23T03:43:31.405Z,9.96
2022-12-23T03:46:03.496Z,9.96
2022-12-23T03:48:39.147Z,9.96
2022-12-23T03:51:14.583Z,9.96
2022-12-23T03:53:48.234Z,9.94
2022-12-23T03:56:21.726Z,9.94
2022-12-23T03:59:08.316Z,9.93
2022-12-23T04:01:56.760Z,9.94
2022-12-23T04:04:52.560Z,9.94
2022-12-23T04:07:23.709Z,9.93
2022-12-23T04:09:53.189Z,9.92
2022-12-23T04:12:23.389Z,9.92
2022-12-23T04:14:50.392Z,9.93
2022-12-23T04:17:17.664Z,9.92
2022-12-23T04:19:47.932Z,9.91
2022-12-23T04:22:16.134Z,9.91
2022-12-23T04:24:43.092Z,9.91
2022-12-23T04:27:12.881Z,9.90
2022-12-23T04:29:39.293Z,9.89
2022-12-23T04:32:06.113Z,9.88
2022-12-23T04:34:32.595Z,9.87
2022-12-23T04:36:58.990Z,9.87
2022-12-23T04:39:25.348Z,9.87
2022-12-23T04:41:51.685Z,9.89
2022-12-23T04:44:18.076Z,9.88
2022-12-23T04:46:44.641Z,9.90
2022-12-23T04:49:11.032Z,9.92
2022-12-23T04:51:37.416Z,9.94
2022-12-23T04:54:04.021Z,9.93
2022-12-23T04:56:30.352Z,9.92
2022-12-23T04:58:56.678Z,9.95
2022-12-23T05:01:23.102Z,9.97
2022-12-23T05:03:49.588Z,9.97
2022-12-23T05:06:16.050Z,10.00
2022-12-23T05:08:42.438Z,10.02
2022-12-23T05:11:08.877Z,10.04
2022-12-23T05:13:35.269Z,10.06
2022-12-23T05:16:01.640Z,10.08
2022-12-23T05:18:28.032Z,10.08
2022-12-23T05:20:54.382Z,10.09
2022-12-23T05:23:20.850Z,10.12
2022-12-23T05:25:52.734Z,10.12
2022-12-23T05:28:19.611Z,10.12
2022-12-23T05:30:46.120Z,10.13
2022-12-23T05:33:12.717Z,10.14
2022-12-23T05:35:39.105Z,10.16
2022-12-23T05:38:05.569Z,10.16
2022-12-23T05:40:32.986Z,10.17
2022-12-23T05:42:59.949Z,10.18
2022-12-23T05:45:26.512Z,10.20
2022-12-23T05:47:52.903Z,10.23
2022-12-23T05:50:19.324Z,10.25
2022-12-23T05:52:45.685Z,10.25
2022-12-23T05:55:12.116Z,10.25
2022-12-23T05:57:38.524Z,10.27
2022-12-23T06:00:05.332Z,10.27
2022-12-23T06:02:31.922Z,10.28
2022-12-23T06:04:58.452Z,10.30
2022-12-23T06:07:24.815Z,10.30
2022-12-23T06:09:51.212Z,10.32
2022-12-23T06:12:17.600Z,10.33
2022-12-23T06:14:44.031Z,10.32
2022-12-23T06:17:10.374Z,10.33
2022-12-23T06:19:36.717Z,10.34
2022-12-23T06:22:03.082Z,10.35
2022-12-23T06:24:29.495Z,10.35
2022-12-23T06:26:57.443Z,10.38
2022-12-23T06:29:24.890Z,10.36
2022-12-23T06:31:51.532Z,10.38
2022-12-23T06:34:18.087Z,10.38
2022-12-23T06:36:44.533Z,10.40
2022-12-23T06:39:11.054Z,10.40
2022-12-23T06:41:37.468Z,10.39
2022-12-23T06:44:04.027Z,10.38
2022-12-23T06:46:30.620Z,10.39
2022-12-23T06:48:57.063Z,10.37
2022-12-23T06:51:23.500Z,10.38
2022-12-23T06:53:49.938Z,10.37
2022-12-23T06:56:16.384Z,10.37
2022-12-23T06:58:42.812Z,10.35
2022-12-23T07:01:10.239Z,10.36
2022-12-23T07:03:36.865Z,10.34
2022-12-23T07:06:03.509Z,10.34
2022-12-23T07:08:29.902Z,10.33
2022-12-23T07:11:00.118Z,10.32
2022-12-23T07:13:27.135Z,10.31
2022-12-23T07:15:53.732Z,10.31
2022-12-23T08:29:07.603Z,9.01
2022-12-23T08:31:34.255Z,8.98
2022-12-23T08:34:01.210Z,8.95
2022-12-23T08:36:33.106Z,8.94
2022-12-23T08:39:03.834Z,8.93
2022-12-23T08:41:34.156Z,8.93
2022-12-23T08:44:00.517Z,8.91
2022-12-23T08:46:27.458Z,8.91
2022-12-23T09:02:06.469Z,8.95
2022-12-23T09:04:32.905Z,8.96
2022-12-23T09:06:59.405Z,8.94
2022-12-23T09:09:25.791Z,8.94
2022-12-23T09:11:52.209Z,8.95
2022-12-23T09:14:18.570Z,8.94
2022-12-23T09:16:44.949Z,8.95
2022-12-23T09:19:11.386Z,8.96
2022-12-23T09:21:37.761Z,8.95
2022-12-23T09:24:04.468Z,8.96
2022-12-23T09:26:31.677Z,8.95
2022-12-23T09:28:58.887Z,8.96
2022-12-23T09:31:30.805Z,8.95
2022-12-23T09:34:00.664Z,8.95
2022-12-23T09:36:27.051Z,8.95
2022-12-23T09:38:54.819Z,8.95
2022-12-23T09:41:39.582Z,8.95
2022-12-23T09:44:23.691Z,8.96
2022-12-23T09:47:05.805Z,8.96
2022-12-23T09:49:33.700Z,8.94
2022-12-23T09:52:04.714Z,8.95
2022-12-23T09:54:41.726Z,8.94
2022-12-23T09:57:22.719Z,8.95
2022-12-23T10:00:04.116Z,8.94
2022-12-23T10:02:30.611Z,8.96
2022-12-23T10:05:05.499Z,8.96
2022-12-23T10:07:58.155Z,8.95
2022-12-23T10:10:39.413Z,8.96
2022-12-23T10:13:11.249Z,8.96
2022-12-23T10:34:38.290Z,8.99
2022-12-23T10:55:02.190Z,9.00
2022-12-23T10:57:30.064Z,9.02
2022-12-23T10:59:57.480Z,9.02
2022-12-23T11:02:24.034Z,9.04
2022-12-23T11:04:50.825Z,9.02
2022-12-23T11:07:45.158Z,9.04
2022-12-23T11:10:19.330Z,9.02
2022-12-23T11:12:51.326Z,9.04
2022-12-23T11:15:27.002Z,9.03
2022-12-23T11:18:16.961Z,9.07
2022-12-23T11:20:46.366Z,9.05
2022-12-23T11:23:27.085Z,9.06
2022-12-23T11:26:09.445Z,9.07
2022-12-23T11:28:39.902Z,9.08
2022-12-23T11:31:11.794Z,9.09
2022-12-23T11:33:48.829Z,9.09
2022-12-23T11:36:23.898Z,9.10
2022-12-23T11:39:04.243Z,9.10
2022-12-23T11:41:37.307Z,9.10
2022-12-23T11:44:12.262Z,9.11
2022-12-23T11:46:38.656Z,9.11
2022-12-23T11:49:27.212Z,9.11
2022-12-23T11:52:09.516Z,9.13
2022-12-23T11:54:36.733Z,9.13
2022-12-23T11:57:07.801Z,9.12
2022-12-23T11:59:38.602Z,9.12
2022-12-23T12:02:15.936Z,9.12
2022-12-23T12:04:42.723Z,9.14
2022-12-23T12:07:14.332Z,9.14
2022-12-23T12:09:43.375Z,9.13
2022-12-23T12:12:16.912Z,9.15
2022-12-23T12:14:47.040Z,9.15
2022-12-23T12:17:32.777Z,9.15
2022-12-23T12:20:05.810Z,9.15
2022-12-23T12:22:38.086Z,9.14
2022-12-23T12:25:10.811Z,9.14
2022-12-23T12:27:40.213Z,9.15
2022-12-23T12:30:15.890Z,9.15
2022-12-23T12:32:45.023Z,9.15
2022-12-23T12:35:43.624Z,9.14
2022-12-23T12:38:23.969Z,9.14
2022-12-23T12:40:56.740Z,9.14
2022-12-23T12:43:33.287Z,9.14
2022-12-23T12:46:32.669Z,9.14
2022-12-23T12:49:37.115Z,9.14
2022-12-23T12:52:11.814Z,9.15
2022-12-23T12:54:48.978Z,9.15
2022-12-23T12:57:17.788Z,9.15
2022-12-23T12:59:45.256Z,9.15
2022-12-23T13:02:22.734Z,9.15
2022-12-23T13:05:10.508Z,9.15
2022-12-23T13:07:45.613Z,9.15
2022-12-23T13:10:22.059Z,9.15
2022-12-23T13:13:00.558Z,9.15
2022-12-23T13:15:59.291Z,9.15
2022-12-23T13:18:40.050Z,9.17
2022-12-23T13:21:16.842Z,9.15
2022-12-23T13:24:03.607Z,9.15
2022-12-23T13:26:37.942Z,9.16
2022-12-23T13:29:38.206Z,9.16
2022-12-23T13:32:21.781Z,9.17
2022-12-23T13:34:57.161Z,9.18
2022-12-23T13:37:42.266Z,9.19
2022-12-23T13:40:22.267Z,9.18
2022-12-23T13:42:57.396Z,9.17
2022-12-23T13:45:31.830Z,9.17
2022-12-23T13:48:24.685Z,9.17
2022-12-23T13:51:06.680Z,9.16
2022-12-23T13:54:03.962Z,9.15
2022-12-23T13:56:50.436Z,9.13
2022-12-23T13:59:17.087Z,9.14
2022-12-23T14:01:49.548Z,9.14
2022-12-23T14:04:33.556Z,9.13
2022-12-23T14:07:03.323Z,9.12
2022-12-23T14:09:35.300Z,9.12
2022-12-23T14:12:19.410Z,9.14
2022-12-23T14:14:58.787Z,9.12
2022-12-23T14:17:44.518Z,9.13
2022-12-23T14:20:19.696Z,9.14
2022-12-23T14:23:18.317Z,9.14
2022-12-23T14:25:50.657Z,9.15
2022-12-23T14:28:42.151Z,9.14
2022-12-23T14:31:30.020Z,9.15
2022-12-23T14:34:24.935Z,9.17
2022-12-23T14:37:24.160Z,9.15
2022-12-23T14:39:51.426Z,9.16
2022-12-23T14:42:42.185Z,9.15
2022-12-23T14:45:29.436Z,9.15
2022-12-23T14:47:55.932Z,9.15
2022-12-23T14:50:39.535Z,9.16
2022-12-23T14:53:26.278Z,9.17
2022-12-23T14:56:10.695Z,9.16
2022-12-23T14:58:45.959Z,9.17
2022-12-23T15:01:16.952Z,9.17
2022-12-23T15:03:47.754Z,9.17
2022-12-23T15:06:33.334Z,9.16
2022-12-23T15:09:01.465Z,9.16
2022-12-23T15:11:31.447Z,9.17
2022-12-23T15:14:01.433Z,9.17
2022-12-23T15:16:35.183Z,9.17
2022-12-23T15:19:16.464Z,9.16
2022-12-23T15:21:46.824Z,9.16
2022-12-23T15:24:20.493Z,9.15
2022-12-23T15:27:17.825Z,9.13
2022-12-23T15:29:43.667Z,9.15
2022-12-23T15:32:10.929Z,9.15
2022-12-23T15:34:37.701Z,9.16
2022-12-23T15:37:10.952Z,9.16
2022-12-23T15:39:41.213Z,9.16
2022-12-23T15:42:26.537Z,9.16
2022-12-23T15:44:53.547Z,9.17
2022-12-23T15:47:26.135Z,9.15
2022-12-23T15:49:52.609Z,9.14
2022-12-23T15:52:20.568Z,9.14
2022-12-23T15:55:02.202Z,9.14
2022-12-23T15:57:30.271Z,9.15
2022-12-23T15:59:58.744Z,9.14
2022-12-23T16:02:59.043Z,9.15
2022-12-23T16:05:12.387Z,9.15
2022-12-23T16:07:41.728Z,9.14
2022-12-23T16:10:15.419Z,9.14
2022-12-23T16:12:42.722Z,9.15
2022-12-23T16:15:27.365Z,9.14
2022-12-23T16:18:20.301Z,9.14
2022-12-23T16:21:00.750Z,9.13
2022-12-23T16:23:33.682Z,9.15
2022-12-23T16:26:01.645Z,9.15
2022-12-23T16:28:35.664Z,9.14
2022-12-23T16:31:06.412Z,9.15
2022-12-23T16:33:55.321Z,9.16
2022-12-23T16:36:33.477Z,9.16
2022-12-23T16:39:12.914Z,9.17
2022-12-23T16:41:39.552Z,9.17
2022-12-23T16:44:06.080Z,9.16
2022-12-23T16:46:36.558Z,9.16
2022-12-23T16:49:06.002Z,9.16
2022-12-23T16:51:34.089Z,9.16
2022-12-23T16:54:01.412Z,9.17
2022-12-23T16:56:31.749Z,9.18
2022-12-23T16:58:58.182Z,9.18
2022-12-23T17:01:30.998Z,9.19
2022-12-23T17:03:57.482Z,9.19
2022-12-23T17:06:25.205Z,9.19
2022-12-23T17:08:53.151Z,9.17
2022-12-23T17:11:35.897Z,9.16
2022-12-23T17:14:06.680Z,9.14
2022-12-23T17:16:35.627Z,9.15
2022-12-23T17:19:02.010Z,9.17
2022-12-23T17:21:34.873Z,9.18
2022-12-23T17:24:13.928Z,9.17
2022-12-23T17:26:40.339Z,9.11
2022-12-23T17:29:06.857Z,9.07
2022-12-23T17:31:34.091Z,9.10
2022-12-23T17:34:01.215Z,9.11
2022-12-23T17:36:27.820Z,9.13
2022-12-23T17:38:54.431Z,9.12
2022-12-23T17:41:32.108Z,9.12
2022-12-23T17:43:59.467Z,9.14
2022-12-23T17:46:26.349Z,9.14
2022-12-23T17:48:53.267Z,9.14
2022-12-23T17:51:22.515Z,9.16
2022-12-23T17:53:56.848Z,9.17
2022-12-23T17:56:24.523Z,9.17
2022-12-23T17:58:51.315Z,9.18
2022-12-23T18:01:24.246Z,9.21
2022-12-23T18:03:50.770Z,9.22
2022-12-23T18:06:21.524Z,9.23
2022-12-23T18:08:48.600Z,9.26
2022-12-23T18:11:20.594Z,9.29
2022-12-23T18:13:48.848Z,9.31
2022-12-23T18:16:15.322Z,9.33
2022-12-23T18:18:46.195Z,9.34
2022-12-23T18:21:27.367Z,9.37
2022-12-23T18:23:57.149Z,9.40
2022-12-23T18:26:23.641Z,9.42
2022-12-23T18:28:51.299Z,9.42
2022-12-23T18:31:21.928Z,9.45
2022-12-23T18:33:48.540Z,9.45
2022-12-23T18:36:33.182Z,9.47
2022-12-23T18:39:00.199Z,9.49
2022-12-23T18:41:27.907Z,9.50
2022-12-23T18:43:55.050Z,9.52
2022-12-23T18:46:21.984Z,9.52
2022-12-23T18:48:48.634Z,9.56
2022-12-23T18:51:17.259Z,9.56
2022-12-23T18:53:43.986Z,9.57
2022-12-23T18:56:14.053Z,9.58
2022-12-23T18:58:40.465Z,9.58
2022-12-23T19:01:14.024Z,9.60
2022-12-23T19:03:41.183Z,9.62
2022-12-23T19:06:09.084Z,9.61
2022-12-23T19:08:37.154Z,9.62
2022-12-23T19:11:14.350Z,9.62
2022-12-23T19:13:41.034Z,9.61
2022-12-23T19:16:07.943Z,9.61
2022-12-23T19:18:34.420Z,9.61
2022-12-23T19:21:04.327Z,9.61
2022-12-23T19:23:30.712Z,9.61
2022-12-23T19:25:57.131Z,9.62
2022-12-23T19:28:23.752Z,9.61
2022-12-23T19:30:50.500Z,9.60
2022-12-23T19:33:17.007Z,9.61
2022-12-23T19:35:44.059Z,9.61
2022-12-23T19:38:10.970Z,9.62
2022-12-23T19:40:37.790Z,9.62
2022-12-23T19:43:04.523Z,9.62
2022-12-23T19:45:30.984Z,9.62
2022-12-23T19:47:57.499Z,9.65
2022-12-23T19:50:24.047Z,9.65
2022-12-23T19:52:51.582Z,9.63
2022-12-23T19:55:17.958Z,9.65
2022-12-23T19:57:44.369Z,9.66
2022-12-23T20:00:11.266Z,9.67
2022-12-23T20:02:37.824Z,9.67
2022-12-23T20:05:04.706Z,9.67
2022-12-23T20:07:31.075Z,9.67
2022-12-23T20:09:57.439Z,9.67
2022-12-23T20:12:25.311Z,9.67
2022-12-23T20:14:51.857Z,9.66
2022-12-23T20:17:18.175Z,9.68
2022-12-23T20:19:46.261Z,9.68
2022-12-23T20:22:12.845Z,9.68
2022-12-23T20:24:39.222Z,9.68
2022-12-23T20:27:10.928Z,9.69
2022-12-23T20:29:38.350Z,9.68
2022-12-23T20:32:04.908Z,9.69
2022-12-23T20:34:38.394Z,9.69
2022-12-23T20:37:05.380Z,9.69
2022-12-23T20:39:31.730Z,9.70
2022-12-23T20:41:58.125Z,9.72
2022-12-23T20:44:34.643Z,9.72
2022-12-23T20:47:02.742Z,9.73
2022-12-23T20:49:29.313Z,9.74
2022-12-23T20:51:55.749Z,9.74
2022-12-23T20:54:27.919Z,9.75
2022-12-23T20:56:58.559Z,9.76
2022-12-23T20:59:24.999Z,9.77
2022-12-23T21:01:52.115Z,9.77
2022-12-23T21:04:18.881Z,9.80
2022-12-23T21:06:45.482Z,9.81
2022-12-23T21:09:14.549Z,9.82
2022-12-23T21:11:43.957Z,9.82
2022-12-23T21:14:11.259Z,9.81
2022-12-23T21:16:38.642Z,9.82
2022-12-23T21:19:07.143Z,9.81
2022-12-23T21:21:33.708Z,9.78
2022-12-23T21:24:04.060Z,9.78
2022-12-23T21:26:31.857Z,9.79
2022-12-23T21:29:00.405Z,9.78
2022-12-23T21:31:28.372Z,9.80
2022-12-23T21:33:55.289Z,9.79
2022-12-23T21:36:24.851Z,9.81
2022-12-23T21:38:52.064Z,9.80
2022-12-23T21:41:21.841Z,9.81
2022-12-23T21:43:49.672Z,9.81
2022-12-23T21:46:18.923Z,9.80
2022-12-23T21:48:46.018Z,9.78
2022-12-23T21:51:15.121Z,9.79
2022-12-23T21:53:42.875Z,9.78
2022-12-23T21:56:14.642Z,9.78
2022-12-23T21:58:41.777Z,9.77
2022-12-23T22:01:09.423Z,9.78
2022-12-23T22:03:36.844Z,9.79
2022-12-23T22:06:10.194Z,9.80
2022-12-23T22:08:37.425Z,9.80
2022-12-23T22:11:12.079Z,9.77
2022-12-23T22:13:38.784Z,9.77
2022-12-23T22:16:09.871Z,9.73
2022-12-23T22:18:37.375Z,9.69
2022-12-23T22:21:05.339Z,9.66
2022-12-23T22:23:31.749Z,9.64
2022-12-23T22:25:58.273Z,9.60
2022-12-23T22:28:24.633Z,9.57
2022-12-23T22:30:51.141Z,9.55
2022-12-23T22:33:17.563Z,9.53
2022-12-23T22:35:52.885Z,9.52
2022-12-23T22:38:19.214Z,9.51
2022-12-23T22:40:49.303Z,9.51
2022-12-23T22:43:15.702Z,9.51
2022-12-23T22:45:42.048Z,9.51
2022-12-23T22:48:08.569Z,9.51
2022-12-23T22:50:35.192Z,9.48
2022-12-23T22:53:01.544Z,9.49
2022-12-23T22:55:27.904Z,9.46
2022-12-23T22:57:54.284Z,9.46
2022-12-23T23:00:20.952Z,9.46
2022-12-23T23:02:47.455Z,9.47
2022-12-23T23:05:13.889Z,9.47
2022-12-23T23:07:40.374Z,9.47
2022-12-23T23:10:07.487Z,9.48
2022-12-23T23:12:33.913Z,9.48
2022-12-23T23:15:00.367Z,9.49
2022-12-23T23:17:28.200Z,9.50
2022-12-23T23:19:55.106Z,9.49
2022-12-23T23:22:23.355Z,9.51
2022-12-23T23:24:49.884Z,9.51
2022-12-23T23:27:16.382Z,9.50
2022-12-23T23:29:42.790Z,9.50
2022-12-23T23:32:09.919Z,9.51
2022-12-23T23:34:36.903Z,9.54
2022-12-23T23:37:04.714Z,9.53
2022-12-23T23:39:31.148Z,9.56
2022-12-23T23:41:57.615Z,9.55
2022-12-23T23:44:24.025Z,9.57
2022-12-23T23:46:50.406Z,9.55
2022-12-23T23:49:16.763Z,9.52
2022-12-23T23:51:43.216Z,9.53
2022-12-23T23:54:09.652Z,9.53
2022-12-23T23:56:39.128Z,9.53
2022-12-23T23:59:06.654Z,9.53
